sensor_id;sensor_type;location;lat;lon;timestamp;temperature;humidity
46590;DHT22;32313;48.722;9.362;2022-10-30T00:00:34;10.20;99.90
46590;DHT22;32313;48.722;9.362;2022-10-30T00:03:00;10.10;99.90
46590;DHT22;32313;48.722;9.362;2022-10-30T00:05:26;10.10;99.90
46590;DHT22;32313;48.722;9.362;2022-10-30T00:07:54;10.00;99.90
46590;DHT22;32313;48.722;9.362;2022-10-30T00:10:19;10.00;99.90
46590;DHT22;32313;48.722;9.362;2022-10-30T00:12:45;9.90;99.90
46590;DHT22;32313;48.722;9.362;2022-10-30T00:15:11;9.90;99.90
46590;DHT22;32313;48.722;9.362;2022-10-30T00:17:37;9.90;99.90
46590;DHT22;32313;48.722;9.362;2022-10-30T00:20:03;10.00;99.90
46590;DHT22;32313;48.722;9.362;2022-10-30T00:22:29;10.00;99.90
46590;DHT22;32313;48.722;9.362;2022-10-30T00:24:55;10.00;99.90
46590;DHT22;32313;48.722;9.362;2022-10-30T00:27:20;10.00;99.90
46590;DHT22;32313;48.722;9.362;2022-10-30T00:29:46;9.90;99.90
46590;DHT22;32313;48.722;9.362;2022-10-30T00:32:12;9.90;99.90
46590;DHT22;32313;48.722;9.362;2022-10-30T00:34:38;9.90;99.90
46590;DHT22;32313;48.722;9.362;2022-10-30T00:37:06;9.90;99.90
46590;DHT22;32313;48.722;9.362;2022-10-30T00:39:32;9.90;99.90
46590;DHT22;32313;48.722;9.362;2022-10-30T00:41:57;9.90;99.90
46590;DHT22;32313;48.722;9.362;2022-10-30T00:47:22;10.00;99.90
46590;DHT22;32313;48.722;9.362;2022-10-30T00:50:16;9.90;99.90
46590;DHT22;32313;48.722;9.362;2022-10-30T00:53:07;9.90;99.90
46590;DHT22;32313;48.722;9.362;2022-10-30T00:55:41;9.90;99.90
46590;DHT22;32313;48.722;9.362;2022-10-30T00:58:12;10.00;99.90
46590;DHT22;32313;48.722;9.362;2022-10-30T01:00:44;10.00;99.90
46590;DHT22;32313;48.722;9.362;2022-10-30T01:03:10;10.00;99.90
46590;DHT22;32313;48.722;9.362;2022-10-30T01:05:37;9.90;99.90
46590;DHT22;32313;48.722;9.362;2022-10-30T01:08:03;10.00;99.90
46590;DHT22;32313;48.722;9.362;2022-10-30T01:10:29;9.90;99.90
46590;DHT22;32313;48.722;9.362;2022-10-30T01:12:56;9.90;99.90
46590;DHT22;32313;48.722;9.362;2022-10-30T01:15:27;9.90;99.90
46590;DHT22;32313;48.722;9.362;2022-10-30T01:20:55;9.90;99.90
46590;DHT22;32313;48.722;9.362;2022-10-30T01:34:55;9.90;99.90
46590;DHT22;32313;48.722;9.362;2022-10-30T01:37:30;9.90;99.90
46590;DHT22;32313;48.722;9.362;2022-10-30T01:40:03;9.80;99.90
46590;DHT22;32313;48.722;9.362;2022-10-30T01:42:50;9.80;99.90
46590;DHT22;32313;48.722;9.362;2022-10-30T01:45:49;9.80;99.90
46590;DHT22;32313;48.722;9.362;2022-10-30T01:53:42;9.60;99.90
46590;DHT22;32313;48.722;9.362;2022-10-30T01:59:13;9.60;99.90
46590;DHT22;32313;48.722;9.362;2022-10-30T02:01:42;9.60;99.90
46590;DHT22;32313;48.722;9.362;2022-10-30T02:04:08;9.60;99.90
46590;DHT22;32313;48.722;9.362;2022-10-30T02:06:36;9.60;99.90
46590;DHT22;32313;48.722;9.362;2022-10-30T02:09:04;9.50;99.90
46590;DHT22;32313;48.722;9.362;2022-10-30T02:11:31;9.50;99.90
46590;DHT22;32313;48.722;9.362;2022-10-30T02:14:03;9.50;99.90
46590;DHT22;32313;48.722;9.362;2022-10-30T02:16:31;9.50;99.90
46590;DHT22;32313;48.722;9.362;2022-10-30T02:18:58;9.50;99.90
46590;DHT22;32313;48.722;9.362;2022-10-30T02:21:23;9.40;99.90
46590;DHT22;32313;48.722;9.362;2022-10-30T02:23:49;9.40;99.90
46590;DHT22;32313;48.722;9.362;2022-10-30T02:26:15;9.40;99.90
46590;DHT22;32313;48.722;9.362;2022-10-30T02:28:40;9.40;99.90
46590;DHT22;32313;48.722;9.362;2022-10-30T02:31:06;9.40;99.90
46590;DHT22;32313;48.722;9.362;2022-10-30T02:33:32;9.40;99.90
46590;DHT22;32313;48.722;9.362;2022-10-30T02:35:57;9.50;99.90
46590;DHT22;32313;48.722;9.362;2022-10-30T02:38:23;9.50;99.90
46590;DHT22;32313;48.722;9.362;2022-10-30T02:40:49;9.50;99.90
46590;DHT22;32313;48.722;9.362;2022-10-30T02:43:15;9.60;99.90
46590;DHT22;32313;48.722;9.362;2022-10-30T02:45:41;9.60;99.90
46590;DHT22;32313;48.722;9.362;2022-10-30T02:48:06;9.70;99.90
46590;DHT22;32313;48.722;9.362;2022-10-30T02:50:32;9.70;99.90
46590;DHT22;32313;48.722;9.362;2022-10-30T02:52:58;9.70;99.90
46590;DHT22;32313;48.722;9.362;2022-10-30T02:55:24;9.70;99.90
46590;DHT22;32313;48.722;9.362;2022-10-30T02:57:53;9.80;99.90
46590;DHT22;32313;48.722;9.362;2022-10-30T03:00:19;9.80;99.90
46590;DHT22;32313;48.722;9.362;2022-10-30T03:02:45;9.80;99.90
46590;DHT22;32313;48.722;9.362;2022-10-30T03:05:10;9.80;99.90
46590;DHT22;32313;48.722;9.362;2022-10-30T03:07:36;9.70;99.90
46590;DHT22;32313;48.722;9.362;2022-10-30T03:10:02;9.70;99.90
46590;DHT22;32313;48.722;9.362;2022-10-30T03:12:30;9.70;99.90
46590;DHT22;32313;48.722;9.362;2022-10-30T03:14:56;9.60;99.90
46590;DHT22;32313;48.722;9.362;2022-10-30T03:17:22;9.60;99.90
46590;DHT22;32313;48.722;9.362;2022-10-30T03:19:48;9.60;99.90
46590;DHT22;32313;48.722;9.362;2022-10-30T03:22:13;9.60;99.90
46590;DHT22;32313;48.722;9.362;2022-10-30T03:24:39;9.50;99.90
46590;DHT22;32313;48.722;9.362;2022-10-30T03:27:05;9.60;99.90
46590;DHT22;32313;48.722;9.362;2022-10-30T03:29:31;9.60;99.90
46590;DHT22;32313;48.722;9.362;2022-10-30T03:31:56;9.50;99.90
46590;DHT22;32313;48.722;9.362;2022-10-30T03:34:26;9.50;99.90
46590;DHT22;32313;48.722;9.362;2022-10-30T03:36:52;9.50;99.90
46590;DHT22;32313;48.722;9.362;2022-10-30T03:39:19;9.50;99.90
46590;DHT22;32313;48.722;9.362;2022-10-30T03:41:45;9.50;99.90
46590;DHT22;32313;48.722;9.362;2022-10-30T03:44:11;9.50;99.90
46590;DHT22;32313;48.722;9.362;2022-10-30T03:46:37;9.50;99.90
46590;DHT22;32313;48.722;9.362;2022-10-30T03:49:16;9.50;99.90
46590;DHT22;32313;48.722;9.362;2022-10-30T03:51:42;9.50;99.90
46590;DHT22;32313;48.722;9.362;2022-10-30T03:54:08;9.50;99.90
46590;DHT22;32313;48.722;9.362;2022-10-30T03:56:34;9.50;99.90
46590;DHT22;32313;48.722;9.362;2022-10-30T03:59:02;9.60;99.90
46590;DHT22;32313;48.722;9.362;2022-10-30T04:01:28;9.60;99.90
46590;DHT22;32313;48.722;9.362;2022-10-30T04:03:55;9.60;99.90
46590;DHT22;32313;48.722;9.362;2022-10-30T04:06:23;9.60;99.90
46590;DHT22;32313;48.722;9.362;2022-10-30T04:08:49;9.60;99.90
46590;DHT22;32313;48.722;9.362;2022-10-30T04:11:16;9.60;99.90
46590;DHT22;32313;48.722;9.362;2022-10-30T04:13:43;9.50;99.90
46590;DHT22;32313;48.722;9.362;2022-10-30T04:16:08;9.50;99.90
46590;DHT22;32313;48.722;9.362;2022-10-30T04:18:34;9.40;99.90
46590;DHT22;32313;48.722;9.362;2022-10-30T04:21:00;9.40;99.90
46590;DHT22;32313;48.722;9.362;2022-10-30T04:23:26;9.30;99.90
46590;DHT22;32313;48.722;9.362;2022-10-30T04:25:52;9.20;99.90
46590;DHT22;32313;48.722;9.362;2022-10-30T04:28:18;9.20;99.90
46590;DHT22;32313;48.722;9.362;2022-10-30T04:30:45;9.10;99.90
46590;DHT22;32313;48.722;9.362;2022-10-30T04:33:14;9.00;99.90
46590;DHT22;32313;48.722;9.362;2022-10-30T04:35:40;9.00;99.90
46590;DHT22;32313;48.722;9.362;2022-10-30T04:38:18;8.90;99.90
46590;DHT22;32313;48.722;9.362;2022-10-30T04:40:44;8.80;99.90
46590;DHT22;32313;48.722;9.362;2022-10-30T04:43:12;8.80;99.90
46590;DHT22;32313;48.722;9.362;2022-10-30T04:45:40;8.70;99.90
46590;DHT22;32313;48.722;9.362;2022-10-30T04:48:09;8.70;99.90
46590;DHT22;32313;48.722;9.362;2022-10-30T04:50:35;8.70;99.90
46590;DHT22;32313;48.722;9.362;2022-10-30T04:53:05;8.60;99.90
46590;DHT22;32313;48.722;9.362;2022-10-30T04:55:31;8.60;99.90
46590;DHT22;32313;48.722;9.362;2022-10-30T04:57:58;8.50;99.90
46590;DHT22;32313;48.722;9.362;2022-10-30T05:00:25;8.50;99.90
46590;DHT22;32313;48.722;9.362;2022-10-30T05:02:57;8.50;99.90
46590;DHT22;32313;48.722;9.362;2022-10-30T05:05:24;8.40;99.90
46590;DHT22;32313;48.722;9.362;2022-10-30T05:07:49;8.40;99.90
46590;DHT22;32313;48.722;9.362;2022-10-30T05:10:16;8.40;99.90
46590;DHT22;32313;48.722;9.362;2022-10-30T05:12:44;8.30;99.90
46590;DHT22;32313;48.722;9.362;2022-10-30T05:15:12;8.30;99.90
46590;DHT22;32313;48.722;9.362;2022-10-30T05:17:38;8.20;99.90
46590;DHT22;32313;48.722;9.362;2022-10-30T05:20:05;8.20;99.90
46590;DHT22;32313;48.722;9.362;2022-10-30T05:22:31;8.10;99.90
46590;DHT22;32313;48.722;9.362;2022-10-30T05:24:57;8.20;99.90
46590;DHT22;32313;48.722;9.362;2022-10-30T05:27:23;8.10;99.90
46590;DHT22;32313;48.722;9.362;2022-10-30T05:29:48;8.10;99.90
46590;DHT22;32313;48.722;9.362;2022-10-30T05:32:14;8.10;99.90
46590;DHT22;32313;48.722;9.362;2022-10-30T05:34:46;8.10;99.90
46590;DHT22;32313;48.722;9.362;2022-10-30T05:37:16;8.10;99.90
46590;DHT22;32313;48.722;9.362;2022-10-30T05:39:42;8.00;99.90
46590;DHT22;32313;48.722;9.362;2022-10-30T05:42:19;8.00;99.90
46590;DHT22;32313;48.722;9.362;2022-10-30T05:44:45;8.00;99.90
46590;DHT22;32313;48.722;9.362;2022-10-30T05:47:11;8.00;99.90
46590;DHT22;32313;48.722;9.362;2022-10-30T05:49:38;7.90;99.90
46590;DHT22;32313;48.722;9.362;2022-10-30T05:52:13;7.90;99.90
46590;DHT22;32313;48.722;9.362;2022-10-30T05:54:39;7.90;99.90
46590;DHT22;32313;48.722;9.362;2022-10-30T05:57:13;7.90;99.90
46590;DHT22;32313;48.722;9.362;2022-10-30T05:59:39;7.90;99.90
46590;DHT22;32313;48.722;9.362;2022-10-30T06:02:05;7.90;99.90
46590;DHT22;32313;48.722;9.362;2022-10-30T06:04:31;7.90;99.90
46590;DHT22;32313;48.722;9.362;2022-10-30T06:06:58;7.80;99.90
46590;DHT22;32313;48.722;9.362;2022-10-30T06:09:23;7.90;99.90
46590;DHT22;32313;48.722;9.362;2022-10-30T06:12:08;7.90;99.90
46590;DHT22;32313;48.722;9.362;2022-10-30T06:14:44;7.90;99.90
46590;DHT22;32313;48.722;9.362;2022-10-30T06:17:10;7.90;99.90
46590;DHT22;32313;48.722;9.362;2022-10-30T06:19:58;8.00;99.90
46590;DHT22;32313;48.722;9.362;2022-10-30T06:22:52;8.10;99.90
46590;DHT22;32313;48.722;9.362;2022-10-30T06:25:19;8.10;99.90
46590;DHT22;32313;48.722;9.362;2022-10-30T06:27:56;8.10;99.90
46590;DHT22;32313;48.722;9.362;2022-10-30T06:30:22;8.10;99.90
46590;DHT22;32313;48.722;9.362;2022-10-30T06:32:54;8.10;99.90
46590;DHT22;32313;48.722;9.362;2022-10-30T06:35:20;8.10;99.90
46590;DHT22;32313;48.722;9.362;2022-10-30T06:37:46;8.10;99.90
46590;DHT22;32313;48.722;9.362;2022-10-30T06:40:13;8.20;99.90
46590;DHT22;32313;48.722;9.362;2022-10-30T06:43:14;8.20;99.90
46590;DHT22;32313;48.722;9.362;2022-10-30T06:45:44;8.20;99.90
46590;DHT22;32313;48.722;9.362;2022-10-30T06:48:10;8.30;99.90
46590;DHT22;32313;48.722;9.362;2022-10-30T06:50:43;8.40;99.90
46590;DHT22;32313;48.722;9.362;2022-10-30T06:53:09;8.40;99.90
46590;DHT22;32313;48.722;9.362;2022-10-30T06:55:35;8.60;99.90
46590;DHT22;32313;48.722;9.362;2022-10-30T06:58:18;8.70;99.90
46590;DHT22;32313;48.722;9.362;2022-10-30T07:01:02;8.90;99.90
46590;DHT22;32313;48.722;9.362;2022-10-30T07:03:53;9.20;99.90
46590;DHT22;32313;48.722;9.362;2022-10-30T07:06:19;9.50;99.90
46590;DHT22;32313;48.722;9.362;2022-10-30T07:08:46;10.00;99.90
46590;DHT22;32313;48.722;9.362;2022-10-30T07:11:13;10.40;99.90
46590;DHT22;32313;48.722;9.362;2022-10-30T07:13:58;10.80;99.90
46590;DHT22;32313;48.722;9.362;2022-10-30T07:16:32;10.70;99.90
46590;DHT22;32313;48.722;9.362;2022-10-30T07:18:59;10.50;99.90
46590;DHT22;32313;48.722;9.362;2022-10-30T07:21:25;10.30;99.90
46590;DHT22;32313;48.722;9.362;2022-10-30T07:23:51;10.30;99.90
46590;DHT22;32313;48.722;9.362;2022-10-30T07:26:51;10.20;99.90
46590;DHT22;32313;48.722;9.362;2022-10-30T07:29:55;10.30;99.90
46590;DHT22;32313;48.722;9.362;2022-10-30T07:32:31;10.30;99.90
46590;DHT22;32313;48.722;9.362;2022-10-30T07:35:09;10.30;99.90
46590;DHT22;32313;48.722;9.362;2022-10-30T07:37:53;10.30;99.90
46590;DHT22;32313;48.722;9.362;2022-10-30T07:40:25;10.40;99.90
46590;DHT22;32313;48.722;9.362;2022-10-30T07:42:55;10.40;99.90
46590;DHT22;32313;48.722;9.362;2022-10-30T07:45:32;10.50;99.90
46590;DHT22;32313;48.722;9.362;2022-10-30T07:48:24;10.50;99.90
46590;DHT22;32313;48.722;9.362;2022-10-30T07:50:59;10.60;99.90
46590;DHT22;32313;48.722;9.362;2022-10-30T07:53:25;10.60;99.90
46590;DHT22;32313;48.722;9.362;2022-10-30T07:55:51;10.70;99.90
46590;DHT22;32313;48.722;9.362;2022-10-30T07:58:43;10.70;99.90
46590;DHT22;32313;48.722;9.362;2022-10-30T08:01:29;10.70;99.90
46590;DHT22;32313;48.722;9.362;2022-10-30T08:04:01;10.80;99.90
46590;DHT22;32313;48.722;9.362;2022-10-30T08:06:28;11.40;99.90
46590;DHT22;32313;48.722;9.362;2022-10-30T08:08:53;12.00;99.90
46590;DHT22;32313;48.722;9.362;2022-10-30T08:11:25;12.50;99.90
46590;DHT22;32313;48.722;9.362;2022-10-30T08:13:52;13.10;99.90
46590;DHT22;32313;48.722;9.362;2022-10-30T08:16:17;13.60;99.90
46590;DHT22;32313;48.722;9.362;2022-10-30T08:18:43;13.90;99.90
46590;DHT22;32313;48.722;9.362;2022-10-30T08:21:09;14.00;99.90
46590;DHT22;32313;48.722;9.362;2022-10-30T08:23:40;14.20;99.90
46590;DHT22;32313;48.722;9.362;2022-10-30T08:26:12;14.60;99.90
46590;DHT22;32313;48.722;9.362;2022-10-30T08:28:37;15.00;99.90
46590;DHT22;32313;48.722;9.362;2022-10-30T08:31:07;15.60;99.90
46590;DHT22;32313;48.722;9.362;2022-10-30T08:34:08;16.20;99.90
46590;DHT22;32313;48.722;9.362;2022-10-30T08:36:50;16.80;99.90
46590;DHT22;32313;48.722;9.362;2022-10-30T08:39:18;17.50;99.90
46590;DHT22;32313;48.722;9.362;2022-10-30T08:41:51;17.90;99.90
46590;DHT22;32313;48.722;9.362;2022-10-30T08:44:18;18.50;99.90
46590;DHT22;32313;48.722;9.362;2022-10-30T08:47:02;18.90;99.90
46590;DHT22;32313;48.722;9.362;2022-10-30T08:49:28;19.00;99.90
46590;DHT22;32313;48.722;9.362;2022-10-30T08:51:56;19.10;99.90
46590;DHT22;32313;48.722;9.362;2022-10-30T08:54:21;19.40;99.90
46590;DHT22;32313;48.722;9.362;2022-10-30T08:56:48;19.60;99.90
46590;DHT22;32313;48.722;9.362;2022-10-30T08:59:14;19.50;99.90
46590;DHT22;32313;48.722;9.362;2022-10-30T09:01:40;19.50;99.90
46590;DHT22;32313;48.722;9.362;2022-10-30T09:04:17;19.70;99.90
46590;DHT22;32313;48.722;9.362;2022-10-30T09:07:03;20.10;99.90
46590;DHT22;32313;48.722;9.362;2022-10-30T09:09:49;20.20;99.90
46590;DHT22;32313;48.722;9.362;2022-10-30T09:12:15;20.50;99.90
46590;DHT22;32313;48.722;9.362;2022-10-30T09:14:43;20.60;99.90
46590;DHT22;32313;48.722;9.362;2022-10-30T09:17:10;20.90;99.90
46590;DHT22;32313;48.722;9.362;2022-10-30T09:19:37;21.20;99.90
46590;DHT22;32313;48.722;9.362;2022-10-30T09:22:04;21.50;99.90
46590;DHT22;32313;48.722;9.362;2022-10-30T09:24:32;22.00;99.90
46590;DHT22;32313;48.722;9.362;2022-10-30T09:26:58;22.30;99.90
46590;DHT22;32313;48.722;9.362;2022-10-30T09:29:24;22.60;99.90
46590;DHT22;32313;48.722;9.362;2022-10-30T09:31:59;22.70;99.90
46590;DHT22;32313;48.722;9.362;2022-10-30T09:34:28;23.00;99.90
46590;DHT22;32313;48.722;9.362;2022-10-30T09:37:24;23.00;99.90
46590;DHT22;32313;48.722;9.362;2022-10-30T09:39:54;23.10;99.90
46590;DHT22;32313;48.722;9.362;2022-10-30T09:42:34;23.00;99.90
46590;DHT22;32313;48.722;9.362;2022-10-30T09:50:54;23.40;99.90
46590;DHT22;32313;48.722;9.362;2022-10-30T09:53:32;23.70;99.90
46590;DHT22;32313;48.722;9.362;2022-10-30T09:56:26;23.70;99.90
46590;DHT22;32313;48.722;9.362;2022-10-30T10:04:43;24.60;99.90
46590;DHT22;32313;48.722;9.362;2022-10-30T10:07:29;24.90;99.90
46590;DHT22;32313;48.722;9.362;2022-10-30T10:10:34;25.00;99.90
46590;DHT22;32313;48.722;9.362;2022-10-30T10:13:22;25.10;99.90
46590;DHT22;32313;48.722;9.362;2022-10-30T10:15:56;25.20;99.90
46590;DHT22;32313;48.722;9.362;2022-10-30T10:18:33;25.50;99.90
46590;DHT22;32313;48.722;9.362;2022-10-30T10:21:09;25.90;99.90
46590;DHT22;32313;48.722;9.362;2022-10-30T10:23:48;25.90;99.90
46590;DHT22;32313;48.722;9.362;2022-10-30T10:26:40;25.40;99.90
46590;DHT22;32313;48.722;9.362;2022-10-30T10:29:38;25.40;99.90
46590;DHT22;32313;48.722;9.362;2022-10-30T10:37:30;26.50;99.90
46590;DHT22;32313;48.722;9.362;2022-10-30T10:43:13;26.40;99.90
46590;DHT22;32313;48.722;9.362;2022-10-30T10:51:03;27.10;98.60
46590;DHT22;32313;48.722;9.362;2022-10-30T10:53:43;27.00;99.90
46590;DHT22;32313;48.722;9.362;2022-10-30T10:56:11;26.90;97.90
46590;DHT22;32313;48.722;9.362;2022-10-30T10:58:52;27.00;99.70
46590;DHT22;32313;48.722;9.362;2022-10-30T11:01:39;27.70;98.20
46590;DHT22;32313;48.722;9.362;2022-10-30T11:04:19;28.10;96.50
46590;DHT22;32313;48.722;9.362;2022-10-30T11:06:50;27.70;95.40
46590;DHT22;32313;48.722;9.362;2022-10-30T11:09:23;27.60;95.80
46590;DHT22;32313;48.722;9.362;2022-10-30T11:11:53;27.70;95.60
46590;DHT22;32313;48.722;9.362;2022-10-30T11:14:29;28.10;94.40
46590;DHT22;32313;48.722;9.362;2022-10-30T11:17:18;28.40;92.80
46590;DHT22;32313;48.722;9.362;2022-10-30T11:19:48;28.10;92.20
46590;DHT22;32313;48.722;9.362;2022-10-30T11:22:36;27.90;93.30
46590;DHT22;32313;48.722;9.362;2022-10-30T11:25:23;28.00;91.50
46590;DHT22;32313;48.722;9.362;2022-10-30T11:27:59;27.80;91.40
46590;DHT22;32313;48.722;9.362;2022-10-30T11:30:26;28.00;91.70
46590;DHT22;32313;48.722;9.362;2022-10-30T11:32:54;28.50;91.10
46590;DHT22;32313;48.722;9.362;2022-10-30T11:35:20;28.70;91.00
46590;DHT22;32313;48.722;9.362;2022-10-30T11:37:49;28.80;87.70
46590;DHT22;32313;48.722;9.362;2022-10-30T11:40:20;28.60;83.00
46590;DHT22;32313;48.722;9.362;2022-10-30T11:43:02;28.60;86.70
46590;DHT22;32313;48.722;9.362;2022-10-30T11:45:31;29.00;86.40
46590;DHT22;32313;48.722;9.362;2022-10-30T11:47:59;29.00;82.30
46590;DHT22;32313;48.722;9.362;2022-10-30T11:50:29;28.50;84.90
46590;DHT22;32313;48.722;9.362;2022-10-30T11:53:00;27.70;86.70
46590;DHT22;32313;48.722;9.362;2022-10-30T11:55:31;27.40;87.20
46590;DHT22;32313;48.722;9.362;2022-10-30T11:57:59;27.00;85.90
46590;DHT22;32313;48.722;9.362;2022-10-30T12:00:27;26.70;89.80
46590;DHT22;32313;48.722;9.362;2022-10-30T12:02:55;26.70;89.00
46590;DHT22;32313;48.722;9.362;2022-10-30T12:05:32;26.90;89.60
46590;DHT22;32313;48.722;9.362;2022-10-30T12:08:19;27.20;86.10
46590;DHT22;32313;48.722;9.362;2022-10-30T12:13:19;27.80;86.30
46590;DHT22;32313;48.722;9.362;2022-10-30T12:15:48;27.60;87.70
46590;DHT22;32313;48.722;9.362;2022-10-30T12:18:24;27.60;87.30
46590;DHT22;32313;48.722;9.362;2022-10-30T12:20:54;27.60;85.90
46590;DHT22;32313;48.722;9.362;2022-10-30T12:23:22;27.50;88.50
46590;DHT22;32313;48.722;9.362;2022-10-30T12:26:10;27.60;86.30
46590;DHT22;32313;48.722;9.362;2022-10-30T12:28:36;27.50;86.30
46590;DHT22;32313;48.722;9.362;2022-10-30T12:31:12;27.80;86.60
46590;DHT22;32313;48.722;9.362;2022-10-30T12:36:42;27.50;82.70
46590;DHT22;32313;48.722;9.362;2022-10-30T12:42:01;26.90;86.80
46590;DHT22;32313;48.722;9.362;2022-10-30T12:44:36;27.20;87.00
46590;DHT22;32313;48.722;9.362;2022-10-30T12:47:21;27.10;86.30
46590;DHT22;32313;48.722;9.362;2022-10-30T12:53:01;26.60;87.60
46590;DHT22;32313;48.722;9.362;2022-10-30T12:55:37;26.60;86.80
46590;DHT22;32313;48.722;9.362;2022-10-30T13:04:08;25.90;88.30
46590;DHT22;32313;48.722;9.362;2022-10-30T13:06:53;25.80;88.30
46590;DHT22;32313;48.722;9.362;2022-10-30T13:09:26;25.70;90.10
46590;DHT22;32313;48.722;9.362;2022-10-30T13:12:03;25.70;87.60
46590;DHT22;32313;48.722;9.362;2022-10-30T13:14:43;25.80;86.60
46590;DHT22;32313;48.722;9.362;2022-10-30T13:17:13;26.00;84.80
46590;DHT22;32313;48.722;9.362;2022-10-30T13:19:45;26.10;82.70
46590;DHT22;32313;48.722;9.362;2022-10-30T13:27:59;25.70;86.70
46590;DHT22;32313;48.722;9.362;2022-10-30T13:30:34;25.60;86.90
46590;DHT22;32313;48.722;9.362;2022-10-30T13:33:13;25.60;88.80
46590;DHT22;32313;48.722;9.362;2022-10-30T13:36:01;25.60;90.80
46590;DHT22;32313;48.722;9.362;2022-10-30T13:49:03;25.50;91.40
46590;DHT22;32313;48.722;9.362;2022-10-30T13:51:48;25.50;91.80
46590;DHT22;32313;48.722;9.362;2022-10-30T13:54:33;25.60;93.00
46590;DHT22;32313;48.722;9.362;2022-10-30T13:57:09;25.50;93.80
46590;DHT22;32313;48.722;9.362;2022-10-30T14:00:04;25.60;93.10
46590;DHT22;32313;48.722;9.362;2022-10-30T14:05:34;25.90;91.40
46590;DHT22;32313;48.722;9.362;2022-10-30T14:10:57;25.80;92.50
46590;DHT22;32313;48.722;9.362;2022-10-30T14:13:28;25.80;93.50
46590;DHT22;32313;48.722;9.362;2022-10-30T14:19:03;25.50;93.40
46590;DHT22;32313;48.722;9.362;2022-10-30T14:21:49;25.10;94.00
46590;DHT22;32313;48.722;9.362;2022-10-30T14:27:08;24.30;96.40
46590;DHT22;32313;48.722;9.362;2022-10-30T14:29:42;23.80;97.50
46590;DHT22;32313;48.722;9.362;2022-10-30T14:34:41;23.00;99.90
46590;DHT22;32313;48.722;9.362;2022-10-30T14:37:07;22.50;99.90
46590;DHT22;32313;48.722;9.362;2022-10-30T14:39:41;22.10;99.90
46590;DHT22;32313;48.722;9.362;2022-10-30T14:54:44;20.30;99.90
46590;DHT22;32313;48.722;9.362;2022-10-30T14:57:42;20.00;99.90
46590;DHT22;32313;48.722;9.362;2022-10-30T15:08:26;19.20;99.90
46590;DHT22;32313;48.722;9.362;2022-10-30T15:11:24;19.00;99.90
46590;DHT22;32313;48.722;9.362;2022-10-30T15:13:55;18.70;99.90
46590;DHT22;32313;48.722;9.362;2022-10-30T15:16:23;18.60;99.90
46590;DHT22;32313;48.722;9.362;2022-10-30T15:19:00;18.40;99.90
46590;DHT22;32313;48.722;9.362;2022-10-30T15:21:28;18.30;99.90
46590;DHT22;32313;48.722;9.362;2022-10-30T15:23:58;18.10;99.90
46590;DHT22;32313;48.722;9.362;2022-10-30T15:26:35;17.90;99.90
46590;DHT22;32313;48.722;9.362;2022-10-30T15:29:03;17.80;99.90
46590;DHT22;32313;48.722;9.362;2022-10-30T15:31:30;17.60;99.90
46590;DHT22;32313;48.722;9.362;2022-10-30T15:33:56;17.40;99.90
46590;DHT22;32313;48.722;9.362;2022-10-30T15:36:39;17.30;99.90
46590;DHT22;32313;48.722;9.362;2022-10-30T15:39:14;17.10;99.90
46590;DHT22;32313;48.722;9.362;2022-10-30T15:44:18;16.80;99.90
46590;DHT22;32313;48.722;9.362;2022-10-30T15:46:46;16.70;99.90
46590;DHT22;32313;48.722;9.362;2022-10-30T15:51:53;16.40;99.90
46590;DHT22;32313;48.722;9.362;2022-10-30T15:54:20;16.20;99.90
46590;DHT22;32313;48.722;9.362;2022-10-30T15:56:48;16.10;99.90
46590;DHT22;32313;48.722;9.362;2022-10-30T15:59:20;15.90;99.90
46590;DHT22;32313;48.722;9.362;2022-10-30T16:01:47;15.80;99.90
46590;DHT22;32313;48.722;9.362;2022-10-30T16:04:15;15.70;99.90
46590;DHT22;32313;48.722;9.362;2022-10-30T16:06:49;15.60;99.90
46590;DHT22;32313;48.722;9.362;2022-10-30T16:09:15;15.40;99.90
46590;DHT22;32313;48.722;9.362;2022-10-30T16:11:41;15.20;99.90
46590;DHT22;32313;48.722;9.362;2022-10-30T16:14:09;15.10;99.90
46590;DHT22;32313;48.722;9.362;2022-10-30T16:16:36;15.00;99.90
46590;DHT22;32313;48.722;9.362;2022-10-30T16:19:03;14.90;99.90
46590;DHT22;32313;48.722;9.362;2022-10-30T16:21:29;14.80;99.90
46590;DHT22;32313;48.722;9.362;2022-10-30T16:24:00;14.70;99.90
46590;DHT22;32313;48.722;9.362;2022-10-30T16:26:32;14.70;99.90
46590;DHT22;32313;48.722;9.362;2022-10-30T16:29:01;14.60;99.90
46590;DHT22;32313;48.722;9.362;2022-10-30T16:31:33;14.50;99.90
46590;DHT22;32313;48.722;9.362;2022-10-30T16:34:00;14.40;99.90
46590;DHT22;32313;48.722;9.362;2022-10-30T16:36:27;14.30;99.90
46590;DHT22;32313;48.722;9.362;2022-10-30T16:38:54;14.20;99.90
46590;DHT22;32313;48.722;9.362;2022-10-30T16:41:20;14.10;99.90
46590;DHT22;32313;48.722;9.362;2022-10-30T16:44:08;14.00;99.90
46590;DHT22;32313;48.722;9.362;2022-10-30T16:46:37;13.90;99.90
46590;DHT22;32313;48.722;9.362;2022-10-30T16:49:09;13.90;99.90
46590;DHT22;32313;48.722;9.362;2022-10-30T16:51:38;13.80;99.90
46590;DHT22;32313;48.722;9.362;2022-10-30T16:54:04;13.70;99.90
46590;DHT22;32313;48.722;9.362;2022-10-30T16:56:31;13.60;99.90
46590;DHT22;32313;48.722;9.362;2022-10-30T16:59:06;13.50;99.90
46590;DHT22;32313;48.722;9.362;2022-10-30T17:01:32;13.40;99.90
46590;DHT22;32313;48.722;9.362;2022-10-30T17:03:59;13.30;99.90
46590;DHT22;32313;48.722;9.362;2022-10-30T17:06:38;13.20;99.90
46590;DHT22;32313;48.722;9.362;2022-10-30T17:09:25;13.10;99.90
46590;DHT22;32313;48.722;9.362;2022-10-30T17:14:51;12.80;99.90
46590;DHT22;32313;48.722;9.362;2022-10-30T17:22:44;12.50;99.90
46590;DHT22;32313;48.722;9.362;2022-10-30T17:25:35;12.40;99.90
46590;DHT22;32313;48.722;9.362;2022-10-30T17:28:02;12.30;99.90
46590;DHT22;32313;48.722;9.362;2022-10-30T17:30:40;12.30;99.90
46590;DHT22;32313;48.722;9.362;2022-10-30T17:33:34;12.20;99.90
46590;DHT22;32313;48.722;9.362;2022-10-30T17:36:01;12.20;99.90
46590;DHT22;32313;48.722;9.362;2022-10-30T17:38:26;12.10;99.90
46590;DHT22;32313;48.722;9.362;2022-10-30T17:40:53;12.10;99.90
46590;DHT22;32313;48.722;9.362;2022-10-30T17:43:19;12.00;99.90
46590;DHT22;32313;48.722;9.362;2022-10-30T17:45:45;11.90;99.90
46590;DHT22;32313;48.722;9.362;2022-10-30T17:48:15;11.90;99.90
46590;DHT22;32313;48.722;9.362;2022-10-30T17:50:41;11.80;99.90
46590;DHT22;32313;48.722;9.362;2022-10-30T17:53:15;11.70;99.90
46590;DHT22;32313;48.722;9.362;2022-10-30T17:55:44;11.70;99.90
46590;DHT22;32313;48.722;9.362;2022-10-30T17:58:11;11.60;99.90
46590;DHT22;32313;48.722;9.362;2022-10-30T18:00:37;11.60;99.90
46590;DHT22;32313;48.722;9.362;2022-10-30T18:03:03;11.60;99.90
46590;DHT22;32313;48.722;9.362;2022-10-30T18:05:29;11.50;99.90
46590;DHT22;32313;48.722;9.362;2022-10-30T18:07:57;11.50;99.90
46590;DHT22;32313;48.722;9.362;2022-10-30T18:10:29;11.40;99.90
46590;DHT22;32313;48.722;9.362;2022-10-30T18:12:55;11.30;99.90
46590;DHT22;32313;48.722;9.362;2022-10-30T18:15:30;11.30;99.90
46590;DHT22;32313;48.722;9.362;2022-10-30T18:17:56;11.20;99.90